Time;durP1;ratioP1;P1;durP2;ratioP2;P2;SDS_P1;SDS_P2;PMS_P1;PMS_P2;Temp;Humidity;BMP_temperature;BMP_pressure;BME280_temperature;BME280_humidity;BME280_pressure;Samples;Min_cycle;Max_cycle;Signal;HPM_P1;HPM_P2
2022/06/07 00:01:28;;;;;;;;;;;22.50;50.40;;;;;;485510;246;1181;-76
2022/06/07 00:03:30;;;;;;;;;;;22.60;50.20;;;;;;485491;245;2183;-76
2022/06/07 00:05:31;;;;;;;;;;;22.70;49.90;;;;;;485464;246;976;-76
2022/06/07 00:07:33;;;;;;;;;;;22.70;49.90;;;;;;485420;245;1188;-76
2022/06/07 00:09:34;;;;;;;;;;;22.60;49.90;;;;;;485459;246;991;-76
2022/06/07 00:11:35;;;;;;;;;;;22.60;50.00;;;;;;485412;245;1232;-76
2022/06/07 00:13:37;;;;;;;;;;;22.60;50.00;;;;;;485478;246;961;-76
2022/06/07 00:15:38;;;;;;;;;;;22.60;50.00;;;;;;485493;246;984;-76
2022/06/07 00:17:40;;;;;;;;;;;22.70;49.90;;;;;;485443;246;986;-76
2022/06/07 00:19:41;;;;;;;;;;;22.80;49.80;;;;;;485490;246;1095;-76
2022/06/07 00:21:42;;;;;;;;;;;22.90;49.70;;;;;;485456;245;953;-76
2022/06/07 00:23:44;;;;;;;;;;;22.80;49.60;;;;;;485420;246;2144;-77
2022/06/07 00:25:45;;;;;;;;;;;22.80;49.60;;;;;;485398;246;1057;-76
2022/06/07 00:27:47;;;;;;;;;;;22.80;49.60;;;;;;485449;245;1020;-76
2022/06/07 00:29:48;;;;;;;;;;;22.80;49.60;;;;;;485468;246;988;-76
2022/06/07 00:31:49;;;;;;;;;;;22.90;49.70;;;;;;485428;245;1028;-76
2022/06/07 00:33:51;;;;;;;;;;;22.90;49.60;;;;;;485492;245;972;-76
2022/06/07 00:35:52;;;;;;;;;;;22.90;49.60;;;;;;485458;246;966;-76
2022/06/07 00:37:53;;;;;;;;;;;23.00;49.40;;;;;;485507;246;1128;-76
2022/06/07 00:39:55;;;;;;;;;;;23.00;49.20;;;;;;485431;245;947;-76
2022/06/07 00:41:56;;;;;;;;;;;23.10;49.20;;;;;;485407;246;1054;-76
2022/06/07 00:43:57;;;;;;;;;;;23.10;49.20;;;;;;485400;246;2179;-76
2022/06/07 00:45:59;;;;;;;;;;;23.20;49.10;;;;;;485390;246;951;-76
2022/06/07 00:48:00;;;;;;;;;;;23.20;49.00;;;;;;485428;245;1097;-76
2022/06/07 00:50:01;;;;;;;;;;;23.10;49.00;;;;;;485448;245;965;-76
2022/06/07 00:52:03;;;;;;;;;;;23.20;49.00;;;;;;485692;246;973;-76
2022/06/07 00:54:04;;;;;;;;;;;23.20;49.00;;;;;;485425;246;1174;-76
2022/06/07 00:56:06;;;;;;;;;;;23.20;49.10;;;;;;485433;246;1094;-76
2022/06/07 00:58:07;;;;;;;;;;;23.20;49.20;;;;;;485451;246;1006;-76
2022/06/07 01:00:08;;;;;;;;;;;23.10;49.20;;;;;;485792;245;1132;-76
2022/06/07 01:02:10;;;;;;;;;;;23.20;49.30;;;;;;485454;246;985;-77
2022/06/07 01:04:11;;;;;;;;;;;23.20;49.20;;;;;;485432;245;2186;-76
2022/06/07 01:10:51;;;;;;;;;;;23.10;49.10;;;;;;485347;245;1077;-76
2022/06/07 01:12:52;;;;;;;;;;;23.10;49.10;;;;;;485372;246;1216;-76
2022/06/07 01:14:53;;;;;;;;;;;23.00;49.30;;;;;;485463;246;956;-76
2022/06/07 01:16:55;;;;;;;;;;;23.00;49.30;;;;;;485385;245;1129;-76
2022/06/07 01:18:56;;;;;;;;;;;23.10;49.30;;;;;;485428;245;956;-76
2022/06/07 01:20:58;;;;;;;;;;;23.10;49.20;;;;;;485379;246;949;-76
2022/06/07 01:22:59;;;;;;;;;;;23.10;49.00;;;;;;485404;246;2143;-76
2022/06/07 01:25:00;;;;;;;;;;;23.10;49.10;;;;;;485658;246;1212;-76
2022/06/07 01:27:02;;;;;;;;;;;23.10;48.90;;;;;;485528;246;1177;-76
2022/06/07 01:29:03;;;;;;;;;;;23.20;48.90;;;;;;485391;245;1048;-76
2022/06/07 01:31:05;;;;;;;;;;;23.10;49.00;;;;;;485385;246;1080;-76
2022/06/07 01:33:07;;;;;;;;;;;23.20;48.90;;;;;;485559;245;1029;-76
2022/06/07 01:35:07;;;;;;;;;;;23.20;48.70;;;;;;485332;246;1325;-76
2022/06/07 01:37:09;;;;;;;;;;;23.10;49.00;;;;;;485429;246;1082;-76
2022/06/07 01:43:49;;;;;;;;;;;23.10;48.80;;;;;;485360;245;2112;-76
2022/06/07 01:45:50;;;;;;;;;;;23.10;48.70;;;;;;485382;246;992;-76
2022/06/07 01:47:51;;;;;;;;;;;23.10;48.60;;;;;;485390;245;971;-76
2022/06/07 01:49:53;;;;;;;;;;;23.00;48.80;;;;;;485399;245;1189;-76
2022/06/07 01:51:54;;;;;;;;;;;23.10;48.80;;;;;;485350;246;1037;-78
2022/06/07 01:53:55;;;;;;;;;;;23.10;48.70;;;;;;485408;245;1279;-76
2022/06/07 01:55:57;;;;;;;;;;;23.00;48.70;;;;;;485377;246;978;-76
2022/06/07 01:57:58;;;;;;;;;;;23.00;48.90;;;;;;485404;246;954;-76
2022/06/07 02:00:00;;;;;;;;;;;23.00;48.90;;;;;;485432;246;1217;-76
2022/06/07 02:02:01;;;;;;;;;;;23.00;48.80;;;;;;485492;245;1088;-76
2022/06/07 02:04:02;;;;;;;;;;;23.10;48.70;;;;;;485375;246;2188;-76
2022/06/07 02:06:04;;;;;;;;;;;23.10;48.70;;;;;;485429;245;1049;-76
2022/06/07 02:08:05;;;;;;;;;;;23.10;48.60;;;;;;485424;246;1124;-76
2022/06/07 02:10:06;;;;;;;;;;;23.10;48.50;;;;;;485338;245;1211;-76
2022/06/07 02:12:08;;;;;;;;;;;23.20;48.50;;;;;;485451;246;1243;-76
2022/06/07 02:14:09;;;;;;;;;;;23.10;48.50;;;;;;485421;246;965;-76
2022/06/07 02:16:10;;;;;;;;;;;23.20;48.20;;;;;;485412;245;1090;-76
2022/06/07 02:18:12;;;;;;;;;;;23.10;48.50;;;;;;485426;246;1173;-76
2022/06/07 02:20:13;;;;;;;;;;;23.00;48.70;;;;;;485387;245;1065;-77
2022/06/07 02:22:14;;;;;;;;;;;23.00;48.70;;;;;;485495;246;1230;-77
2022/06/07 02:24:16;;;;;;;;;;;23.00;48.70;;;;;;485416;246;2193;-76
2022/06/07 02:26:17;;;;;;;;;;;23.10;48.70;;;;;;485755;245;1067;-76
2022/06/07 02:28:18;;;;;;;;;;;23.20;48.40;;;;;;485438;246;1052;-76
2022/06/07 02:30:20;;;;;;;;;;;23.10;48.40;;;;;;485509;245;1095;-76
2022/06/07 02:32:21;;;;;;;;;;;23.10;48.40;;;;;;485435;245;1198;-76
2022/06/07 02:34:22;;;;;;;;;;;23.20;48.30;;;;;;485451;246;1049;-76
2022/06/07 02:36:24;;;;;;;;;;;23.10;48.40;;;;;;485441;245;1163;-76
2022/06/07 02:38:25;;;;;;;;;;;23.20;48.30;;;;;;485463;246;1096;-76
2022/06/07 02:40:26;;;;;;;;;;;23.10;48.30;;;;;;485471;246;1112;-76
2022/06/07 02:42:28;;;;;;;;;;;23.10;48.30;;;;;;485490;245;1210;-76
2022/06/07 02:44:29;;;;;;;;;;;23.20;48.40;;;;;;485464;246;2124;-76
2022/06/07 02:46:30;;;;;;;;;;;23.20;48.40;;;;;;485440;245;1057;-76
2022/06/07 02:48:32;;;;;;;;;;;23.20;48.30;;;;;;485397;246;1186;-76
2022/06/07 02:50:33;;;;;;;;;;;23.20;48.20;;;;;;485394;245;1306;-76
2022/06/07 02:52:34;;;;;;;;;;;23.20;48.10;;;;;;485367;246;1129;-76
2022/06/07 02:54:36;;;;;;;;;;;23.20;48.20;;;;;;485420;246;1160;-76
2022/06/07 02:56:38;;;;;;;;;;;23.20;48.20;;;;;;485389;246;1101;-76
2022/06/07 02:58:38;;;;;;;;;;;23.10;48.20;;;;;;485450;246;992;-76
2022/06/07 03:00:40;;;;;;;;;;;23.10;48.20;;;;;;485439;246;982;-76
2022/06/07 03:02:41;;;;;;;;;;;23.10;48.40;;;;;;485460;246;1101;-76
2022/06/07 03:04:43;;;;;;;;;;;23.10;48.30;;;;;;485772;246;2191;-76
2022/06/07 03:06:44;;;;;;;;;;;23.10;48.20;;;;;;485412;245;974;-76
2022/06/07 03:08:47;;;;;;;;;;;23.10;48.30;;;;;;485512;245;1033;-76
2022/06/07 03:10:48;;;;;;;;;;;23.10;48.30;;;;;;485520;246;1303;-76
2022/06/07 03:12:50;;;;;;;;;;;23.20;48.10;;;;;;485512;246;1046;-76
2022/06/07 03:14:51;;;;;;;;;;;23.30;47.70;;;;;;485501;246;994;-76
2022/06/07 03:16:52;;;;;;;;;;;23.30;47.70;;;;;;485474;246;987;-76
2022/06/07 03:18:54;;;;;;;;;;;23.30;47.80;;;;;;485491;245;989;-76
2022/06/07 03:20:55;;;;;;;;;;;23.30;47.90;;;;;;485435;245;1022;-76
2022/06/07 03:22:57;;;;;;;;;;;23.40;47.70;;;;;;485492;246;1051;-76
2022/06/07 03:25:04;;;;;;;;;;;23.40;47.60;;;;;;485454;246;2123;-76
2022/06/07 03:26:59;;;;;;;;;;;23.40;47.50;;;;;;485047;245;1438;-76
2022/06/07 03:29:01;;;;;;;;;;;23.40;47.50;;;;;;485527;245;977;-76
2022/06/07 03:31:02;;;;;;;;;;;23.30;47.60;;;;;;485481;246;1057;-76
2022/06/07 03:33:04;;;;;;;;;;;23.30;47.70;;;;;;485402;246;1047;-76
2022/06/07 03:35:05;;;;;;;;;;;23.40;47.70;;;;;;485423;246;972;-76
2022/06/07 03:37:06;;;;;;;;;;;23.50;47.60;;;;;;485277;245;1194;-76
2022/06/07 03:39:08;;;;;;;;;;;23.50;47.40;;;;;;485334;246;1049;-76
2022/06/07 03:41:09;;;;;;;;;;;23.50;47.30;;;;;;485278;246;1161;-76
2022/06/07 03:43:10;;;;;;;;;;;23.30;47.50;;;;;;485392;245;1039;-76
2022/06/07 03:45:12;;;;;;;;;;;23.30;47.60;;;;;;485394;246;2182;-76
2022/06/07 03:47:13;;;;;;;;;;;23.30;47.50;;;;;;485646;245;1032;-76
2022/06/07 03:49:14;;;;;;;;;;;23.20;47.60;;;;;;485467;246;942;-76
2022/06/07 03:51:16;;;;;;;;;;;23.30;47.50;;;;;;485517;246;1146;-76
2022/06/07 03:53:17;;;;;;;;;;;23.20;47.60;;;;;;485399;246;1109;-76
2022/06/07 03:55:19;;;;;;;;;;;23.30;47.50;;;;;;485322;246;967;-76
2022/06/07 03:57:20;;;;;;;;;;;23.30;47.30;;;;;;485621;243;1191;-76
2022/06/07 03:59:21;;;;;;;;;;;23.30;47.50;;;;;;485406;246;1054;-76
2022/06/07 04:01:23;;;;;;;;;;;23.40;47.50;;;;;;485353;246;998;-76
2022/06/07 04:03:24;;;;;;;;;;;23.40;47.40;;;;;;485385;245;975;-76
2022/06/07 04:05:25;;;;;;;;;;;23.30;47.40;;;;;;485368;246;2187;-76
2022/06/07 04:09:46;;;;;;;;;;;23.40;47.50;;;;;;485400;245;989;-76
2022/06/07 04:11:47;;;;;;;;;;;23.40;47.40;;;;;;485332;246;1359;-76
2022/06/07 04:13:49;;;;;;;;;;;23.50;47.30;;;;;;485316;245;1131;-76
2022/06/07 04:15:50;;;;;;;;;;;23.50;47.30;;;;;;485344;246;979;-76
2022/06/07 04:17:53;;;;;;;;;;;23.40;47.30;;;;;;485281;245;1060;-76
2022/06/07 04:19:53;;;;;;;;;;;23.50;47.30;;;;;;485501;245;1475;-76
2022/06/07 04:21:54;;;;;;;;;;;23.50;47.20;;;;;;485236;245;1122;-76
2022/06/07 04:23:55;;;;;;;;;;;23.50;47.20;;;;;;485363;246;2194;-76
2022/06/07 04:25:57;;;;;;;;;;;23.40;47.30;;;;;;485348;245;1045;-76
2022/06/07 04:27:58;;;;;;;;;;;23.40;47.30;;;;;;485391;245;1175;-76
2022/06/07 04:29:59;;;;;;;;;;;23.30;47.40;;;;;;485297;246;975;-76
2022/06/07 04:32:01;;;;;;;;;;;23.30;47.40;;;;;;485298;246;1208;-76
2022/06/07 04:34:02;;;;;;;;;;;23.40;47.50;;;;;;485282;246;968;-76
2022/06/07 04:36:03;;;;;;;;;;;23.40;47.40;;;;;;485230;246;949;-76
2022/06/07 04:38:05;;;;;;;;;;;23.40;47.30;;;;;;485242;246;1073;-76
2022/06/07 04:40:06;;;;;;;;;;;23.40;47.30;;;;;;485223;245;1112;-76
2022/06/07 04:42:07;;;;;;;;;;;23.40;47.40;;;;;;485228;245;1110;-76
2022/06/07 04:44:09;;;;;;;;;;;23.40;47.30;;;;;;485183;246;2198;-76
2022/06/07 04:46:10;;;;;;;;;;;23.50;47.30;;;;;;485171;245;1170;-76
2022/06/07 04:48:11;;;;;;;;;;;23.50;47.20;;;;;;485350;245;1087;-76
2022/06/07 04:50:13;;;;;;;;;;;23.60;47.10;;;;;;485305;245;1182;-76
2022/06/07 04:52:14;;;;;;;;;;;23.50;47.10;;;;;;485153;246;1109;-76
2022/06/07 04:54:15;;;;;;;;;;;23.50;47.10;;;;;;485312;245;1174;-76
2022/06/07 04:56:17;;;;;;;;;;;23.50;47.20;;;;;;485219;246;1160;-76
2022/06/07 04:58:18;;;;;;;;;;;23.50;47.20;;;;;;485385;246;1151;-76
2022/06/07 05:00:19;;;;;;;;;;;23.50;47.30;;;;;;485354;245;1161;-76
2022/06/07 05:02:21;;;;;;;;;;;23.50;47.20;;;;;;485109;245;1118;-76
2022/06/07 05:04:22;;;;;;;;;;;23.50;47.20;;;;;;485212;246;2175;-76
2022/06/07 05:06:23;;;;;;;;;;;23.50;47.20;;;;;;485216;246;1092;-76
2022/06/07 05:08:24;;;;;;;;;;;23.50;47.20;;;;;;485455;245;1042;-76
2022/06/07 05:10:27;;;;;;;;;;;23.50;47.30;;;;;;485206;246;1065;-76
2022/06/07 05:12:30;;;;;;;;;;;23.40;47.50;;;;;;485044;241;1541;-76
2022/06/07 05:14:29;;;;;;;;;;;23.30;47.70;;;;;;485210;246;1388;-76
2022/06/07 05:16:30;;;;;;;;;;;23.20;47.80;;;;;;485029;245;1166;-76
2022/06/07 05:18:32;;;;;;;;;;;23.30;47.80;;;;;;485052;246;994;-76
2022/06/07 05:20:33;;;;;;;;;;;23.30;47.60;;;;;;485099;245;1055;-76
2022/06/07 05:22:34;;;;;;;;;;;23.30;47.70;;;;;;485027;245;1062;-77
2022/06/07 05:24:36;;;;;;;;;;;23.30;47.60;;;;;;485110;246;2207;-76
2022/06/07 05:26:38;;;;;;;;;;;23.30;47.50;;;;;;485090;245;1063;-76
2022/06/07 05:28:38;;;;;;;;;;;23.30;47.50;;;;;;485301;246;1285;-76
2022/06/07 05:30:40;;;;;;;;;;;23.40;47.40;;;;;;485117;246;1010;-76
2022/06/07 05:32:41;;;;;;;;;;;23.40;47.40;;;;;;485147;245;950;-76
2022/06/07 05:34:42;;;;;;;;;;;23.40;47.40;;;;;;485104;245;1006;-76
2022/06/07 05:36:44;;;;;;;;;;;23.40;47.40;;;;;;485041;246;1047;-76
2022/06/07 05:38:45;;;;;;;;;;;23.40;47.40;;;;;;485193;246;1024;-76
2022/06/07 05:40:46;;;;;;;;;;;23.50;47.30;;;;;;485111;245;1044;-76
2022/06/07 05:42:48;;;;;;;;;;;23.40;47.20;;;;;;485057;246;1056;-76
2022/06/07 05:44:49;;;;;;;;;;;23.50;47.30;;;;;;484859;246;2113;-76
2022/06/07 05:46:50;;;;;;;;;;;23.40;47.30;;;;;;484900;246;1282;-76
2022/06/07 05:48:52;;;;;;;;;;;23.40;47.50;;;;;;485174;246;1245;-76
2022/06/07 05:50:53;;;;;;;;;;;23.40;47.50;;;;;;484859;246;1068;-76
2022/06/07 05:52:55;;;;;;;;;;;23.40;47.50;;;;;;485238;245;1150;-76
2022/06/07 05:54:57;;;;;;;;;;;23.50;47.30;;;;;;484916;246;1072;-76
2022/06/07 05:56:57;;;;;;;;;;;23.50;47.30;;;;;;485116;245;1416;-76
2022/06/07 05:58:59;;;;;;;;;;;23.50;47.10;;;;;;484955;245;1190;-76
2022/06/07 06:01:00;;;;;;;;;;;23.40;47.20;;;;;;484842;245;1066;-76
2022/06/07 06:03:01;;;;;;;;;;;23.40;47.30;;;;;;484758;245;1069;-76
2022/06/07 06:05:04;;;;;;;;;;;23.40;47.30;;;;;;484779;246;2214;-76
2022/06/07 06:07:04;;;;;;;;;;;23.40;47.30;;;;;;484685;246;1530;-76
2022/06/07 06:11:25;;;;;;;;;;;23.30;47.60;;;;;;484844;245;1070;-76
2022/06/07 06:13:26;;;;;;;;;;;23.30;47.60;;;;;;484863;245;1092;-76
2022/06/07 06:15:28;;;;;;;;;;;23.30;47.50;;;;;;484749;245;1055;-76
2022/06/07 06:17:30;;;;;;;;;;;23.40;47.50;;;;;;484712;245;1039;-76
2022/06/07 06:19:30;;;;;;;;;;;23.40;47.30;;;;;;484767;245;1385;-76
2022/06/07 06:21:32;;;;;;;;;;;23.30;47.30;;;;;;484783;246;1079;-76
2022/06/07 06:23:33;;;;;;;;;;;23.40;47.30;;;;;;484812;246;1100;-76
2022/06/07 06:25:35;;;;;;;;;;;23.30;47.30;;;;;;484761;246;2167;-76
2022/06/07 06:27:37;;;;;;;;;;;23.30;47.30;;;;;;484903;244;1277;-76
2022/06/07 06:29:38;;;;;;;;;;;23.20;47.50;;;;;;484777;246;1385;-76
2022/06/07 06:31:39;;;;;;;;;;;23.20;47.50;;;;;;484650;246;1128;-76
2022/06/07 06:33:40;;;;;;;;;;;23.20;47.60;;;;;;484608;245;1093;-76
2022/06/07 06:35:42;;;;;;;;;;;23.20;47.60;;;;;;484524;245;1058;-76
2022/06/07 06:37:43;;;;;;;;;;;23.20;47.50;;;;;;484573;246;1163;-76
2022/06/07 06:39:44;;;;;;;;;;;23.20;47.60;;;;;;484549;245;1065;-76
2022/06/07 06:41:47;;;;;;;;;;;23.10;47.80;;;;;;484325;246;1116;-76
2022/06/07 06:43:47;;;;;;;;;;;23.10;47.80;;;;;;484262;245;1273;-76
2022/06/07 06:45:48;;;;;;;;;;;23.10;47.80;;;;;;484335;246;2167;-76
2022/06/07 06:47:50;;;;;;;;;;;23.20;47.70;;;;;;484459;245;1353;-76
2022/06/07 06:49:51;;;;;;;;;;;23.20;47.70;;;;;;484338;246;1068;-76
2022/06/07 06:51:53;;;;;;;;;;;23.30;47.60;;;;;;484373;245;1101;-76
2022/06/07 06:53:54;;;;;;;;;;;23.20;47.60;;;;;;484348;246;1306;-76
2022/06/07 06:55:55;;;;;;;;;;;23.20;47.50;;;;;;483811;245;1180;-76
2022/06/07 06:57:57;;;;;;;;;;;23.30;47.40;;;;;;483898;245;1351;-76
2022/06/07 06:59:58;;;;;;;;;;;23.30;47.50;;;;;;483921;246;1468;-76
2022/06/07 07:01:59;;;;;;;;;;;23.10;47.70;;;;;;483866;245;1064;-76
2022/06/07 07:04:01;;;;;;;;;;;23.00;48.00;;;;;;483612;246;1207;-75
2022/06/07 07:06:02;;;;;;;;;;;22.90;48.10;;;;;;483832;246;2191;-76
2022/06/07 07:08:03;;;;;;;;;;;22.80;48.50;;;;;;483818;245;1220;-76
2022/06/07 07:10:05;;;;;;;;;;;22.70;48.80;;;;;;484019;245;1027;-76
2022/06/07 07:12:06;;;;;;;;;;;22.70;48.60;;;;;;484126;246;1082;-76
2022/06/07 07:14:08;;;;;;;;;;;22.70;48.70;;;;;;484035;245;1123;-76
2022/06/07 07:16:09;;;;;;;;;;;22.70;48.70;;;;;;484310;245;1140;-76
2022/06/07 07:18:10;;;;;;;;;;;22.70;48.70;;;;;;484569;246;1078;-76
2022/06/07 07:20:12;;;;;;;;;;;22.60;48.80;;;;;;484148;246;1125;-76
2022/06/07 07:22:13;;;;;;;;;;;22.60;49.00;;;;;;484874;246;1276;-76
2022/06/07 07:24:14;;;;;;;;;;;22.50;49.20;;;;;;484755;246;1044;-76
2022/06/07 07:26:16;;;;;;;;;;;22.60;49.20;;;;;;484800;246;2203;-76
2022/06/07 07:28:17;;;;;;;;;;;22.60;49.20;;;;;;484741;246;847;-76
2022/06/07 07:30:18;;;;;;;;;;;22.60;49.20;;;;;;484755;245;1136;-76
2022/06/07 07:32:20;;;;;;;;;;;22.70;49.10;;;;;;484645;246;849;-75
2022/06/07 07:34:21;;;;;;;;;;;22.60;48.90;;;;;;484801;246;839;-77
2022/06/07 07:36:22;;;;;;;;;;;22.60;49.10;;;;;;484358;246;1277;-76
2022/06/07 07:38:24;;;;;;;;;;;22.70;49.20;;;;;;484151;245;1055;-76
2022/06/07 07:40:25;;;;;;;;;;;22.60;49.20;;;;;;484281;245;1069;-76
2022/06/07 07:42:27;;;;;;;;;;;22.60;49.30;;;;;;484222;246;1041;-76
2022/06/07 07:44:28;;;;;;;;;;;22.70;49.40;;;;;;484230;245;1104;-76
2022/06/07 07:46:29;;;;;;;;;;;22.70;49.30;;;;;;484084;245;2124;-77
2022/06/07 07:48:31;;;;;;;;;;;22.60;49.20;;;;;;484320;246;1089;-78
2022/06/07 07:50:32;;;;;;;;;;;22.60;49.40;;;;;;484541;245;1018;-77
2022/06/07 07:52:33;;;;;;;;;;;22.80;49.00;;;;;;484302;245;1048;-76
2022/06/07 07:54:35;;;;;;;;;;;22.80;48.80;;;;;;484043;246;1073;-76
2022/06/07 07:56:36;;;;;;;;;;;22.90;48.70;;;;;;483610;246;1082;-77
2022/06/07 07:58:37;;;;;;;;;;;22.80;48.90;;;;;;483921;245;1029;-76
2022/06/07 08:00:39;;;;;;;;;;;22.90;48.80;;;;;;484024;245;1089;-76
2022/06/07 08:02:40;;;;;;;;;;;22.90;48.70;;;;;;484125;246;1251;-76
2022/06/07 08:04:41;;;;;;;;;;;22.90;48.70;;;;;;484449;246;1069;-77
2022/06/07 08:06:43;;;;;;;;;;;22.90;48.70;;;;;;484217;245;2179;-77
2022/06/07 08:08:44;;;;;;;;;;;22.90;48.40;;;;;;484273;246;1103;-75
2022/06/07 08:10:45;;;;;;;;;;;22.90;48.40;;;;;;483964;246;1128;-76
2022/06/07 08:12:47;;;;;;;;;;;23.00;48.50;;;;;;484014;245;1092;-76
2022/06/07 08:14:48;;;;;;;;;;;23.10;48.20;;;;;;483966;246;1146;-76
2022/06/07 08:16:49;;;;;;;;;;;23.20;48.00;;;;;;483831;245;1097;-76
2022/06/07 08:18:51;;;;;;;;;;;23.30;47.80;;;;;;483966;246;1094;-76
2022/06/07 08:20:52;;;;;;;;;;;23.40;47.50;;;;;;484460;246;1246;-76
2022/06/07 08:22:54;;;;;;;;;;;23.40;47.30;;;;;;483887;246;1186;-76
2022/06/07 08:24:55;;;;;;;;;;;23.50;47.30;;;;;;483793;245;1071;-76
2022/06/07 08:26:56;;;;;;;;;;;23.50;47.10;;;;;;483659;246;2175;-76
2022/06/07 08:28:57;;;;;;;;;;;23.40;47.20;;;;;;483865;245;1149;-76
2022/06/07 08:30:59;;;;;;;;;;;23.30;47.40;;;;;;484021;245;1207;-76
2022/06/07 08:37:32;;;;;;;;;;;23.30;47.60;;;;;;484006;246;1107;-76
2022/06/07 08:37:33;;;;;;;;;;;23.20;47.80;;;;;;484169;245;1229;-76
2022/06/07 08:39:35;;;;;;;;;;;23.20;47.90;;;;;;484248;246;1213;-76
2022/06/07 08:41:36;;;;;;;;;;;23.20;48.00;;;;;;484318;245;1130;-76
2022/06/07 08:43:38;;;;;;;;;;;23.20;48.00;;;;;;484235;246;1162;-76
2022/06/07 08:45:39;;;;;;;;;;;23.20;47.90;;;;;;483957;245;2199;-76
2022/06/07 08:47:41;;;;;;;;;;;23.20;47.80;;;;;;483726;245;1296;-76
2022/06/07 08:49:42;;;;;;;;;;;23.10;47.90;;;;;;483708;246;1314;-76
2022/06/07 08:51:44;;;;;;;;;;;23.20;47.80;;;;;;483783;245;1275;-76
2022/06/07 08:53:45;;;;;;;;;;;23.20;47.80;;;;;;484652;246;1266;-76
2022/06/07 08:55:46;;;;;;;;;;;23.30;47.80;;;;;;484150;246;1247;-76
2022/06/07 08:57:47;;;;;;;;;;;23.30;47.80;;;;;;484049;246;1302;-76
2022/06/07 08:59:49;;;;;;;;;;;23.30;47.70;;;;;;484001;246;1191;-76
2022/06/07 09:01:50;;;;;;;;;;;23.30;47.60;;;;;;483853;245;1163;-76
2022/06/07 09:03:51;;;;;;;;;;;23.30;47.60;;;;;;484130;246;1102;-76
2022/06/07 09:05:53;;;;;;;;;;;23.30;47.50;;;;;;484641;246;2182;-76
2022/06/07 09:07:54;;;;;;;;;;;23.30;47.50;;;;;;483985;246;1075;-76
2022/06/07 09:12:16;;;;;;;;;;;23.30;47.70;;;;;;484031;245;1250;-76
2022/06/07 09:14:16;;;;;;;;;;;23.30;47.70;;;;;;483978;246;1393;-76
2022/06/07 09:16:17;;;;;;;;;;;23.30;47.60;;;;;;484304;245;1241;-76
2022/06/07 09:18:19;;;;;;;;;;;23.30;47.60;;;;;;484460;246;1052;-76
2022/06/07 09:20:21;;;;;;;;;;;23.30;47.50;;;;;;484696;246;1301;-76
2022/06/07 09:22:25;;;;;;;;;;;23.30;47.70;;;;;;484070;245;1388;-76
2022/06/07 09:24:24;;;;;;;;;;;23.30;47.70;;;;;;483991;245;1396;-76
2022/06/07 09:26:25;;;;;;;;;;;23.20;47.80;;;;;;484104;245;2179;-76
2022/06/07 09:28:27;;;;;;;;;;;23.10;48.00;;;;;;484195;245;1104;-76
2022/06/07 09:30:28;;;;;;;;;;;23.00;48.20;;;;;;484049;246;1285;-76
2022/06/07 09:32:30;;;;;;;;;;;23.10;48.30;;;;;;483995;246;1102;-76
2022/06/07 09:34:31;;;;;;;;;;;23.00;48.30;;;;;;484124;245;1048;-76
2022/06/07 09:36:32;;;;;;;;;;;23.10;48.30;;;;;;484524;245;1059;-76
2022/06/07 09:38:34;;;;;;;;;;;23.10;48.30;;;;;;451609;245;408315;-76
2022/06/07 09:40:36;;;;;;;;;;;23.10;48.30;;;;;;441846;268;1432;-76
2022/06/07 09:42:37;;;;;;;;;;;23.10;48.10;;;;;;441783;269;1351;-76
2022/06/07 09:44:39;;;;;;;;;;;23.10;48.20;;;;;;441937;269;1248;-76
2022/06/07 09:46:40;;;;;;;;;;;23.00;48.20;;;;;;441940;268;2210;-76
2022/06/07 09:48:41;;;;;;;;;;;23.10;48.30;;;;;;441788;269;1466;-76
2022/06/07 09:50:43;;;;;;;;;;;23.10;48.20;;;;;;441941;269;1271;-75
2022/06/07 09:52:44;;;;;;;;;;;23.10;48.10;;;;;;441913;269;1430;-76
2022/06/07 09:54:45;;;;;;;;;;;23.10;48.20;;;;;;441984;269;1212;-76
2022/06/07 09:56:47;;;;;;;;;;;23.10;48.40;;;;;;441737;269;1213;-76
2022/06/07 09:58:48;;;;;;;;;;;23.10;48.30;;;;;;441884;269;1282;-75
2022/06/07 10:00:49;;;;;;;;;;;23.10;48.30;;;;;;441858;269;1173;-76
2022/06/07 10:02:51;;;;;;;;;;;23.10;48.20;;;;;;442230;267;1413;-75
2022/06/07 10:04:52;;;;;;;;;;;23.10;48.20;;;;;;442274;269;1303;-75
2022/06/07 10:06:53;;;;;;;;;;;23.10;48.20;;;;;;442071;269;2218;-75
2022/06/07 10:08:55;;;;;;;;;;;23.10;48.10;;;;;;441927;269;1152;-76
2022/06/07 10:10:56;;;;;;;;;;;23.10;48.20;;;;;;442367;266;1320;-76
2022/06/07 10:12:58;;;;;;;;;;;23.00;48.40;;;;;;442061;269;1169;-76
2022/06/07 10:14:59;;;;;;;;;;;22.80;48.80;;;;;;442109;269;1198;-76
2022/06/07 10:17:00;;;;;;;;;;;22.70;49.20;;;;;;444375;260;1332;-76
2022/06/07 10:19:02;;;;;;;;;;;22.70;49.30;;;;;;456758;259;1090;-76
2022/06/07 10:21:05;;;;;;;;;;;22.70;49.30;;;;;;456822;259;1201;-76
2022/06/07 10:23:05;;;;;;;;;;;22.70;49.20;;;;;;457244;259;1372;-76
2022/06/07 10:25:06;;;;;;;;;;;22.80;49.10;;;;;;456776;259;1093;-76
2022/06/07 10:27:08;;;;;;;;;;;22.80;48.90;;;;;;456814;259;2202;-76
2022/06/07 10:29:09;;;;;;;;;;;22.90;48.80;;;;;;456753;259;1133;-76
2022/06/07 10:31:10;;;;;;;;;;;22.90;48.70;;;;;;456609;259;1457;-76
2022/06/07 10:33:12;;;;;;;;;;;22.90;48.60;;;;;;456553;259;1171;-76
2022/06/07 10:35:15;;;;;;;;;;;23.00;48.60;;;;;;456989;259;1107;-76
2022/06/07 10:37:17;;;;;;;;;;;23.00;48.60;;;;;;456399;259;1227;-76
2022/06/07 10:39:20;;;;;;;;;;;23.00;48.40;;;;;;456553;259;1116;-76
2022/06/07 10:41:19;;;;;;;;;;;23.00;48.40;;;;;;456527;259;1350;-76
2022/06/07 10:43:21;;;;;;;;;;;23.00;48.30;;;;;;457044;259;1061;-75
2022/06/07 10:45:22;;;;;;;;;;;23.10;48.30;;;;;;456618;259;1194;-76
2022/06/07 10:47:23;;;;;;;;;;;23.10;48.30;;;;;;456694;259;2210;-75
2022/06/07 10:49:25;;;;;;;;;;;23.10;48.30;;;;;;456738;252;1219;-76
2022/06/07 10:53:46;;;;;;;;;;;23.20;48.20;;;;;;456831;260;1205;-75
2022/06/07 10:55:47;;;;;;;;;;;23.20;48.20;;;;;;456821;259;1107;-76
2022/06/07 10:57:48;;;;;;;;;;;23.20;48.10;;;;;;456771;259;1125;-76
2022/06/07 10:59:50;;;;;;;;;;;23.20;48.10;;;;;;456763;259;1090;-76
2022/06/07 11:01:51;;;;;;;;;;;23.20;48.10;;;;;;456654;259;1265;-75
2022/06/07 11:03:52;;;;;;;;;;;23.20;48.20;;;;;;456674;259;1054;-76
2022/06/07 11:10:32;;;;;;;;;;;23.10;48.20;;;;;;456835;260;1212;-75
2022/06/07 11:12:34;;;;;;;;;;;23.10;48.30;;;;;;456740;259;1206;-75
2022/06/07 11:14:35;;;;;;;;;;;23.20;48.30;;;;;;456849;259;1186;-75
2022/06/07 11:16:36;;;;;;;;;;;23.20;48.30;;;;;;456816;259;1296;-76
2022/06/07 11:18:37;;;;;;;;;;;23.20;48.20;;;;;;456846;259;1237;-75
2022/06/07 11:20:39;;;;;;;;;;;23.20;48.20;;;;;;456966;259;1251;-75
2022/06/07 11:22:40;;;;;;;;;;;23.20;48.20;;;;;;456738;259;1087;-75
2022/06/07 11:24:42;;;;;;;;;;;23.20;48.10;;;;;;456881;259;1061;-76
2022/06/07 11:26:43;;;;;;;;;;;23.20;48.10;;;;;;456815;259;2147;-76
2022/06/07 11:28:44;;;;;;;;;;;23.10;48.20;;;;;;456833;259;1195;-76
2022/06/07 11:30:46;;;;;;;;;;;23.10;48.30;;;;;;456721;259;1085;-75
2022/06/07 11:32:47;;;;;;;;;;;23.10;48.40;;;;;;456782;259;1167;-75
2022/06/07 11:34:48;;;;;;;;;;;23.10;48.40;;;;;;456734;259;1110;-76
2022/06/07 11:36:50;;;;;;;;;;;23.10;48.30;;;;;;457028;259;1184;-76
2022/06/07 11:38:51;;;;;;;;;;;23.20;48.20;;;;;;456673;259;1186;-76
2022/06/07 11:41:36;;;;;;;;;;;23.20;48.20;;;;;;456736;259;1517;-75
2022/06/07 11:42:54;;;;;;;;;;;23.20;48.10;;;;;;456914;259;1331;-76
2022/06/07 11:44:55;;;;;;;;;;;23.10;48.20;;;;;;456668;259;1156;-76
2022/06/07 11:46:57;;;;;;;;;;;23.10;48.30;;;;;;456648;259;2194;-75
2022/06/07 11:48:58;;;;;;;;;;;23.10;48.40;;;;;;457268;259;1313;-76
2022/06/07 11:50:59;;;;;;;;;;;23.10;48.50;;;;;;456727;259;1139;-76
2022/06/07 11:53:01;;;;;;;;;;;23.20;48.40;;;;;;457497;259;1095;-76
2022/06/07 11:55:02;;;;;;;;;;;23.20;48.30;;;;;;456924;259;1146;-75
2022/06/07 11:57:03;;;;;;;;;;;23.20;48.20;;;;;;456881;259;1163;-75
2022/06/07 11:59:05;;;;;;;;;;;23.20;48.30;;;;;;456599;259;1079;-75
2022/06/07 12:01:06;;;;;;;;;;;23.10;48.30;;;;;;456620;260;1181;-75
2022/06/07 12:03:08;;;;;;;;;;;23.00;48.40;;;;;;457272;259;1219;-75
2022/06/07 12:05:09;;;;;;;;;;;23.00;48.50;;;;;;456702;259;1228;-76
2022/06/07 12:07:11;;;;;;;;;;;23.00;48.40;;;;;;456720;259;2201;-76
2022/06/07 12:09:12;;;;;;;;;;;23.00;48.30;;;;;;457513;259;1069;-76
2022/06/07 12:11:20;;;;;;;;;;;23.00;48.30;;;;;;456325;259;861;-76
2022/06/07 12:13:15;;;;;;;;;;;23.00;48.40;;;;;;457051;255;1424;-76
2022/06/07 12:15:16;;;;;;;;;;;23.00;48.50;;;;;;456371;259;1180;-76
2022/06/07 12:17:17;;;;;;;;;;;23.00;48.50;;;;;;457230;259;1274;-76
2022/06/07 12:19:18;;;;;;;;;;;23.00;48.50;;;;;;456633;259;1287;-76
2022/06/07 12:21:21;;;;;;;;;;;23.10;48.40;;;;;;456718;259;863;-76
2022/06/07 12:23:21;;;;;;;;;;;23.00;48.30;;;;;;457163;259;1400;-76